sensor_id;sensor_type;location;lat;lon;timestamp;P1;durP1;ratioP1;P2;durP2;ratioP2
739;SDS011;354;42.694;23.336;2023-01-15T00:00:58;30.63;;;21.07;;
739;SDS011;354;42.694;23.336;2023-01-15T00:03:23;29.47;;;19.90;;
739;SDS011;354;42.694;23.336;2023-01-15T00:05:49;27.23;;;19.10;;
739;SDS011;354;42.694;23.336;2023-01-15T00:08:14;30.07;;;20.83;;
739;SDS011;354;42.694;23.336;2023-01-15T00:10:40;26.53;;;19.23;;
739;SDS011;354;42.694;23.336;2023-01-15T00:13:05;25.90;;;18.73;;
739;SDS011;354;42.694;23.336;2023-01-15T00:15:30;25.53;;;17.93;;
739;SDS011;354;42.694;23.336;2023-01-15T00:17:56;27.90;;;20.00;;
739;SDS011;354;42.694;23.336;2023-01-15T00:20:21;32.00;;;21.20;;
739;SDS011;354;42.694;23.336;2023-01-15T00:22:46;24.17;;;19.20;;
739;SDS011;354;42.694;23.336;2023-01-15T00:25:12;25.93;;;19.43;;
739;SDS011;354;42.694;23.336;2023-01-15T00:27:56;25.07;;;17.87;;
739;SDS011;354;42.694;23.336;2023-01-15T00:30:21;26.47;;;18.40;;
739;SDS011;354;42.694;23.336;2023-01-15T00:32:48;26.03;;;18.80;;
739;SDS011;354;42.694;23.336;2023-01-15T00:35:18;24.50;;;17.77;;
739;SDS011;354;42.694;23.336;2023-01-15T00:37:45;24.80;;;18.10;;
739;SDS011;354;42.694;23.336;2023-01-15T00:40:10;24.60;;;16.43;;
739;SDS011;354;42.694;23.336;2023-01-15T00:42:37;26.53;;;18.23;;
739;SDS011;354;42.694;23.336;2023-01-15T00:45:03;23.67;;;17.50;;
739;SDS011;354;42.694;23.336;2023-01-15T00:47:37;28.60;;;18.53;;
739;SDS011;354;42.694;23.336;2023-01-15T00:50:04;26.93;;;19.60;;
739;SDS011;354;42.694;23.336;2023-01-15T00:52:30;22.20;;;17.73;;
739;SDS011;354;42.694;23.336;2023-01-15T00:54:56;24.27;;;18.27;;
739;SDS011;354;42.694;23.336;2023-01-15T00:57:21;26.00;;;16.77;;
739;SDS011;354;42.694;23.336;2023-01-15T00:59:46;24.20;;;17.37;;
739;SDS011;354;42.694;23.336;2023-01-15T01:02:12;25.57;;;16.80;;
739;SDS011;354;42.694;23.336;2023-01-15T01:04:37;24.63;;;16.53;;
739;SDS011;354;42.694;23.336;2023-01-15T01:07:03;22.33;;;16.53;;
739;SDS011;354;42.694;23.336;2023-01-15T01:09:28;27.37;;;18.63;;
739;SDS011;354;42.694;23.336;2023-01-15T01:11:53;23.77;;;18.87;;
739;SDS011;354;42.694;23.336;2023-01-15T01:14:19;25.27;;;18.20;;
739;SDS011;354;42.694;23.336;2023-01-15T01:16:44;25.87;;;17.70;;
739;SDS011;354;42.694;23.336;2023-01-15T01:19:11;23.87;;;17.57;;
739;SDS011;354;42.694;23.336;2023-01-15T01:21:38;22.23;;;16.70;;
739;SDS011;354;42.694;23.336;2023-01-15T01:24:05;22.20;;;16.67;;
739;SDS011;354;42.694;23.336;2023-01-15T01:26:32;24.37;;;18.77;;
739;SDS011;354;42.694;23.336;2023-01-15T01:28:58;23.87;;;17.87;;
739;SDS011;354;42.694;23.336;2023-01-15T01:31:23;24.93;;;17.23;;
739;SDS011;354;42.694;23.336;2023-01-15T01:33:50;22.90;;;18.00;;
739;SDS011;354;42.694;23.336;2023-01-15T01:36:17;24.57;;;18.27;;
739;SDS011;354;42.694;23.336;2023-01-15T01:38:47;21.43;;;15.27;;
739;SDS011;354;42.694;23.336;2023-01-15T01:41:16;23.57;;;16.97;;
739;SDS011;354;42.694;23.336;2023-01-15T01:43:53;24.90;;;16.60;;
739;SDS011;354;42.694;23.336;2023-01-15T01:46:27;22.80;;;16.90;;
739;SDS011;354;42.694;23.336;2023-01-15T01:48:55;24.03;;;16.10;;
739;SDS011;354;42.694;23.336;2023-01-15T01:51:25;19.43;;;14.27;;
739;SDS011;354;42.694;23.336;2023-01-15T01:53:53;19.13;;;15.00;;
739;SDS011;354;42.694;23.336;2023-01-15T01:56:19;19.87;;;13.20;;
739;SDS011;354;42.694;23.336;2023-01-15T01:58:47;19.63;;;15.67;;
739;SDS011;354;42.694;23.336;2023-01-15T02:01:17;20.40;;;15.13;;
739;SDS011;354;42.694;23.336;2023-01-15T02:03:43;17.40;;;14.00;;
739;SDS011;354;42.694;23.336;2023-01-15T02:06:09;19.70;;;15.80;;
739;SDS011;354;42.694;23.336;2023-01-15T02:08:36;20.77;;;15.17;;
739;SDS011;354;42.694;23.336;2023-01-15T02:11:04;19.70;;;14.77;;
739;SDS011;354;42.694;23.336;2023-01-15T02:13:38;19.10;;;13.73;;
739;SDS011;354;42.694;23.336;2023-01-15T02:16:07;20.87;;;14.97;;
739;SDS011;354;42.694;23.336;2023-01-15T02:18:46;17.97;;;13.63;;
739;SDS011;354;42.694;23.336;2023-01-15T02:24:06;17.27;;;13.43;;
739;SDS011;354;42.694;23.336;2023-01-15T02:29:50;21.03;;;16.00;;
739;SDS011;354;42.694;23.336;2023-01-15T02:32:12;19.00;;;14.57;;
739;SDS011;354;42.694;23.336;2023-01-15T02:35:00;19.50;;;13.53;;
739;SDS011;354;42.694;23.336;2023-01-15T02:37:30;17.33;;;14.87;;
739;SDS011;354;42.694;23.336;2023-01-15T02:39:59;18.07;;;14.13;;
739;SDS011;354;42.694;23.336;2023-01-15T02:42:28;18.07;;;14.77;;
739;SDS011;354;42.694;23.336;2023-01-15T02:44:54;17.53;;;13.83;;
739;SDS011;354;42.694;23.336;2023-01-15T02:47:24;18.50;;;15.00;;
739;SDS011;354;42.694;23.336;2023-01-15T02:49:54;18.67;;;13.53;;
739;SDS011;354;42.694;23.336;2023-01-15T02:52:25;20.07;;;15.03;;
739;SDS011;354;42.694;23.336;2023-01-15T02:54:57;16.50;;;12.23;;
739;SDS011;354;42.694;23.336;2023-01-15T02:57:28;14.77;;;11.47;;
739;SDS011;354;42.694;23.336;2023-01-15T02:59:57;15.97;;;13.27;;
739;SDS011;354;42.694;23.336;2023-01-15T03:02:28;16.63;;;13.07;;
739;SDS011;354;42.694;23.336;2023-01-15T03:05:16;19.03;;;14.33;;
739;SDS011;354;42.694;23.336;2023-01-15T03:07:50;19.73;;;14.53;;
739;SDS011;354;42.694;23.336;2023-01-15T03:10:19;18.13;;;13.97;;
739;SDS011;354;42.694;23.336;2023-01-15T03:12:56;15.47;;;13.87;;
739;SDS011;354;42.694;23.336;2023-01-15T03:18:13;18.50;;;14.20;;
739;SDS011;354;42.694;23.336;2023-01-15T03:20:42;18.20;;;13.87;;
739;SDS011;354;42.694;23.336;2023-01-15T03:23:16;21.80;;;15.60;;
739;SDS011;354;42.694;23.336;2023-01-15T03:25:47;16.97;;;13.03;;
739;SDS011;354;42.694;23.336;2023-01-15T03:28:14;19.50;;;14.63;;
739;SDS011;354;42.694;23.336;2023-01-15T03:30:43;16.67;;;13.53;;
739;SDS011;354;42.694;23.336;2023-01-15T03:33:09;18.53;;;13.53;;
739;SDS011;354;42.694;23.336;2023-01-15T03:38:03;18.53;;;14.13;;
739;SDS011;354;42.694;23.336;2023-01-15T03:40:29;17.70;;;14.10;;
739;SDS011;354;42.694;23.336;2023-01-15T03:42:59;16.13;;;12.97;;
739;SDS011;354;42.694;23.336;2023-01-15T03:45:48;17.97;;;15.37;;
739;SDS011;354;42.694;23.336;2023-01-15T03:48:24;17.23;;;13.10;;
739;SDS011;354;42.694;23.336;2023-01-15T03:51:01;18.40;;;13.63;;
739;SDS011;354;42.694;23.336;2023-01-15T03:53:40;18.63;;;14.47;;
739;SDS011;354;42.694;23.336;2023-01-15T03:58:38;17.90;;;14.77;;
739;SDS011;354;42.694;23.336;2023-01-15T04:01:09;18.20;;;14.57;;
739;SDS011;354;42.694;23.336;2023-01-15T04:03:37;16.23;;;13.17;;
739;SDS011;354;42.694;23.336;2023-01-15T04:06:03;21.90;;;14.83;;
739;SDS011;354;42.694;23.336;2023-01-15T04:08:32;21.30;;;13.87;;
739;SDS011;354;42.694;23.336;2023-01-15T04:11:01;18.63;;;15.70;;
739;SDS011;354;42.694;23.336;2023-01-15T04:13:27;18.50;;;15.47;;
739;SDS011;354;42.694;23.336;2023-01-15T04:15:53;19.60;;;15.57;;
739;SDS011;354;42.694;23.336;2023-01-15T04:18:19;19.97;;;14.60;;
739;SDS011;354;42.694;23.336;2023-01-15T04:20:45;16.20;;;12.53;;
739;SDS011;354;42.694;23.336;2023-01-15T04:23:11;17.53;;;14.20;;
739;SDS011;354;42.694;23.336;2023-01-15T04:25:36;16.60;;;14.50;;
739;SDS011;354;42.694;23.336;2023-01-15T04:28:03;16.57;;;13.90;;
739;SDS011;354;42.694;23.336;2023-01-15T04:30:28;20.10;;;15.53;;
739;SDS011;354;42.694;23.336;2023-01-15T04:32:54;18.97;;;15.00;;
739;SDS011;354;42.694;23.336;2023-01-15T04:35:19;18.30;;;14.73;;
739;SDS011;354;42.694;23.336;2023-01-15T04:37:45;16.83;;;12.60;;
739;SDS011;354;42.694;23.336;2023-01-15T04:40:11;14.43;;;12.93;;
739;SDS011;354;42.694;23.336;2023-01-15T04:42:57;18.23;;;14.57;;
739;SDS011;354;42.694;23.336;2023-01-15T04:45:44;18.27;;;13.47;;
739;SDS011;354;42.694;23.336;2023-01-15T04:48:10;16.30;;;12.83;;
739;SDS011;354;42.694;23.336;2023-01-15T04:50:37;19.93;;;14.53;;
739;SDS011;354;42.694;23.336;2023-01-15T04:53:03;16.63;;;14.10;;
739;SDS011;354;42.694;23.336;2023-01-15T04:55:29;16.50;;;13.23;;
739;SDS011;354;42.694;23.336;2023-01-15T04:57:54;16.63;;;12.97;;
739;SDS011;354;42.694;23.336;2023-01-15T05:00:20;15.80;;;12.53;;
739;SDS011;354;42.694;23.336;2023-01-15T05:02:47;16.50;;;14.13;;
739;SDS011;354;42.694;23.336;2023-01-15T05:05:13;16.97;;;14.50;;
739;SDS011;354;42.694;23.336;2023-01-15T05:07:38;17.70;;;13.63;;
739;SDS011;354;42.694;23.336;2023-01-15T05:10:04;18.77;;;14.80;;
739;SDS011;354;42.694;23.336;2023-01-15T05:12:29;16.37;;;14.67;;
739;SDS011;354;42.694;23.336;2023-01-15T05:14:55;15.47;;;12.70;;
739;SDS011;354;42.694;23.336;2023-01-15T05:17:20;18.80;;;13.17;;
739;SDS011;354;42.694;23.336;2023-01-15T05:19:45;14.90;;;11.93;;
739;SDS011;354;42.694;23.336;2023-01-15T05:22:11;16.30;;;13.33;;
739;SDS011;354;42.694;23.336;2023-01-15T05:24:36;14.60;;;12.03;;
739;SDS011;354;42.694;23.336;2023-01-15T05:27:02;14.97;;;12.17;;
739;SDS011;354;42.694;23.336;2023-01-15T05:29:29;15.23;;;12.10;;
739;SDS011;354;42.694;23.336;2023-01-15T05:31:55;14.03;;;11.90;;
739;SDS011;354;42.694;23.336;2023-01-15T05:34:20;13.73;;;12.27;;
739;SDS011;354;42.694;23.336;2023-01-15T05:36:45;14.33;;;12.43;;
739;SDS011;354;42.694;23.336;2023-01-15T05:39:11;12.80;;;10.23;;
739;SDS011;354;42.694;23.336;2023-01-15T05:41:36;12.87;;;10.13;;
739;SDS011;354;42.694;23.336;2023-01-15T05:44:21;12.20;;;11.00;;
739;SDS011;354;42.694;23.336;2023-01-15T05:46:51;13.90;;;10.83;;
739;SDS011;354;42.694;23.336;2023-01-15T05:49:22;12.57;;;11.23;;
739;SDS011;354;42.694;23.336;2023-01-15T05:51:49;18.90;;;17.00;;
739;SDS011;354;42.694;23.336;2023-01-15T05:54:17;13.23;;;11.83;;
739;SDS011;354;42.694;23.336;2023-01-15T05:56:53;16.03;;;13.67;;
739;SDS011;354;42.694;23.336;2023-01-15T05:59:21;14.40;;;12.93;;
739;SDS011;354;42.694;23.336;2023-01-15T06:01:48;15.33;;;13.07;;
739;SDS011;354;42.694;23.336;2023-01-15T06:04:13;13.90;;;12.57;;
739;SDS011;354;42.694;23.336;2023-01-15T06:06:40;13.20;;;11.83;;
739;SDS011;354;42.694;23.336;2023-01-15T06:09:06;15.80;;;10.63;;
739;SDS011;354;42.694;23.336;2023-01-15T06:11:32;13.97;;;11.33;;
739;SDS011;354;42.694;23.336;2023-01-15T06:13:58;11.70;;;10.07;;
739;SDS011;354;42.694;23.336;2023-01-15T06:16:23;14.87;;;11.83;;
739;SDS011;354;42.694;23.336;2023-01-15T06:18:49;12.53;;;11.00;;
739;SDS011;354;42.694;23.336;2023-01-15T06:21:14;13.37;;;11.97;;
739;SDS011;354;42.694;23.336;2023-01-15T06:23:40;12.97;;;11.67;;
739;SDS011;354;42.694;23.336;2023-01-15T06:26:09;17.37;;;12.07;;
739;SDS011;354;42.694;23.336;2023-01-15T06:28:38;13.83;;;11.63;;
739;SDS011;354;42.694;23.336;2023-01-15T06:31:05;14.00;;;11.93;;
739;SDS011;354;42.694;23.336;2023-01-15T06:33:33;18.20;;;14.93;;
739;SDS011;354;42.694;23.336;2023-01-15T06:36:01;13.23;;;11.80;;
739;SDS011;354;42.694;23.336;2023-01-15T06:38:31;11.67;;;10.57;;
739;SDS011;354;42.694;23.336;2023-01-15T06:40:57;11.87;;;10.60;;
739;SDS011;354;42.694;23.336;2023-01-15T06:43:23;12.17;;;10.97;;
739;SDS011;354;42.694;23.336;2023-01-15T06:46:08;13.07;;;11.77;;
739;SDS011;354;42.694;23.336;2023-01-15T06:48:52;13.43;;;12.10;;
739;SDS011;354;42.694;23.336;2023-01-15T06:51:18;11.97;;;10.60;;
739;SDS011;354;42.694;23.336;2023-01-15T06:53:45;12.10;;;10.90;;
739;SDS011;354;42.694;23.336;2023-01-15T06:56:11;12.47;;;11.07;;
739;SDS011;354;42.694;23.336;2023-01-15T06:58:41;14.67;;;11.80;;
739;SDS011;354;42.694;23.336;2023-01-15T07:01:08;21.07;;;15.03;;
739;SDS011;354;42.694;23.336;2023-01-15T07:03:35;20.87;;;16.17;;
739;SDS011;354;42.694;23.336;2023-01-15T07:06:04;26.70;;;17.20;;
739;SDS011;354;42.694;23.336;2023-01-15T07:08:33;24.67;;;18.57;;
739;SDS011;354;42.694;23.336;2023-01-15T07:11:02;24.00;;;18.20;;
739;SDS011;354;42.694;23.336;2023-01-15T07:13:29;25.93;;;18.83;;
739;SDS011;354;42.694;23.336;2023-01-15T07:15:56;26.93;;;18.17;;
739;SDS011;354;42.694;23.336;2023-01-15T07:18:22;25.07;;;18.73;;
739;SDS011;354;42.694;23.336;2023-01-15T07:20:48;20.37;;;16.83;;
739;SDS011;354;42.694;23.336;2023-01-15T07:23:13;22.83;;;16.80;;
739;SDS011;354;42.694;23.336;2023-01-15T07:25:39;26.47;;;18.10;;
739;SDS011;354;42.694;23.336;2023-01-15T07:28:04;22.77;;;16.90;;
739;SDS011;354;42.694;23.336;2023-01-15T07:30:29;25.23;;;20.10;;
739;SDS011;354;42.694;23.336;2023-01-15T07:32:55;23.80;;;16.53;;
739;SDS011;354;42.694;23.336;2023-01-15T07:35:20;22.80;;;18.10;;
739;SDS011;354;42.694;23.336;2023-01-15T07:37:49;22.90;;;17.60;;
739;SDS011;354;42.694;23.336;2023-01-15T07:40:16;28.53;;;20.70;;
739;SDS011;354;42.694;23.336;2023-01-15T07:42:42;27.33;;;20.03;;
739;SDS011;354;42.694;23.336;2023-01-15T07:45:26;24.37;;;18.60;;
739;SDS011;354;42.694;23.336;2023-01-15T07:48:29;25.00;;;18.13;;
739;SDS011;354;42.694;23.336;2023-01-15T07:51:13;19.50;;;14.87;;
739;SDS011;354;42.694;23.336;2023-01-15T07:53:38;19.67;;;15.67;;
739;SDS011;354;42.694;23.336;2023-01-15T07:56:04;14.93;;;13.33;;
739;SDS011;354;42.694;23.336;2023-01-15T07:58:29;15.23;;;13.07;;
739;SDS011;354;42.694;23.336;2023-01-15T08:00:55;19.80;;;16.13;;
739;SDS011;354;42.694;23.336;2023-01-15T08:03:20;19.97;;;15.10;;
739;SDS011;354;42.694;23.336;2023-01-15T08:05:45;19.23;;;15.80;;
739;SDS011;354;42.694;23.336;2023-01-15T08:08:14;23.30;;;17.10;;
739;SDS011;354;42.694;23.336;2023-01-15T08:10:40;20.50;;;17.47;;
739;SDS011;354;42.694;23.336;2023-01-15T08:13:24;22.57;;;17.70;;
739;SDS011;354;42.694;23.336;2023-01-15T08:16:08;21.83;;;16.13;;
739;SDS011;354;42.694;23.336;2023-01-15T08:18:35;20.73;;;16.83;;
739;SDS011;354;42.694;23.336;2023-01-15T08:21:00;19.63;;;17.27;;
739;SDS011;354;42.694;23.336;2023-01-15T08:23:26;21.23;;;16.10;;
739;SDS011;354;42.694;23.336;2023-01-15T08:25:57;24.03;;;17.53;;
739;SDS011;354;42.694;23.336;2023-01-15T08:28:23;20.67;;;16.47;;
739;SDS011;354;42.694;23.336;2023-01-15T08:30:49;21.07;;;17.00;;
739;SDS011;354;42.694;23.336;2023-01-15T08:33:14;23.00;;;16.53;;
739;SDS011;354;42.694;23.336;2023-01-15T08:35:40;22.33;;;18.20;;
739;SDS011;354;42.694;23.336;2023-01-15T08:38:05;24.60;;;19.10;;
739;SDS011;354;42.694;23.336;2023-01-15T08:40:31;21.50;;;15.83;;
739;SDS011;354;42.694;23.336;2023-01-15T08:42:57;27.37;;;17.33;;
739;SDS011;354;42.694;23.336;2023-01-15T08:45:22;21.23;;;17.63;;
739;SDS011;354;42.694;23.336;2023-01-15T08:47:48;19.10;;;15.03;;
739;SDS011;354;42.694;23.336;2023-01-15T08:50:13;22.47;;;16.83;;
739;SDS011;354;42.694;23.336;2023-01-15T08:52:39;20.83;;;16.57;;
739;SDS011;354;42.694;23.336;2023-01-15T08:55:04;23.40;;;18.37;;
739;SDS011;354;42.694;23.336;2023-01-15T08:57:30;17.97;;;14.43;;
739;SDS011;354;42.694;23.336;2023-01-15T08:59:56;23.03;;;16.90;;
739;SDS011;354;42.694;23.336;2023-01-15T09:02:21;21.47;;;16.10;;
739;SDS011;354;42.694;23.336;2023-01-15T09:04:47;17.50;;;14.37;;
739;SDS011;354;42.694;23.336;2023-01-15T09:07:12;20.33;;;16.13;;
739;SDS011;354;42.694;23.336;2023-01-15T09:09:38;19.70;;;15.70;;
739;SDS011;354;42.694;23.336;2023-01-15T09:12:03;18.33;;;15.07;;
739;SDS011;354;42.694;23.336;2023-01-15T09:14:29;22.23;;;17.63;;
739;SDS011;354;42.694;23.336;2023-01-15T09:16:54;25.07;;;18.43;;
739;SDS011;354;42.694;23.336;2023-01-15T09:19:20;23.63;;;17.63;;
739;SDS011;354;42.694;23.336;2023-01-15T09:21:45;23.97;;;18.07;;
739;SDS011;354;42.694;23.336;2023-01-15T09:24:11;24.77;;;19.07;;
739;SDS011;354;42.694;23.336;2023-01-15T09:26:38;28.93;;;21.43;;
739;SDS011;354;42.694;23.336;2023-01-15T09:29:04;27.10;;;20.10;;
739;SDS011;354;42.694;23.336;2023-01-15T09:31:31;30.63;;;21.63;;
739;SDS011;354;42.694;23.336;2023-01-15T09:33:57;31.57;;;22.27;;
739;SDS011;354;42.694;23.336;2023-01-15T09:36:32;29.23;;;21.07;;
739;SDS011;354;42.694;23.336;2023-01-15T09:38:59;28.30;;;21.73;;
739;SDS011;354;42.694;23.336;2023-01-15T09:41:28;26.40;;;19.57;;
739;SDS011;354;42.694;23.336;2023-01-15T09:47:31;32.80;;;22.37;;
739;SDS011;354;42.694;23.336;2023-01-15T09:56:21;29.63;;;21.57;;
739;SDS011;354;42.694;23.336;2023-01-15T09:58:52;30.43;;;22.07;;
739;SDS011;354;42.694;23.336;2023-01-15T10:01:28;30.67;;;21.00;;
739;SDS011;354;42.694;23.336;2023-01-15T10:06:44;30.53;;;21.37;;
739;SDS011;354;42.694;23.336;2023-01-15T10:09:22;28.00;;;21.30;;
739;SDS011;354;42.694;23.336;2023-01-15T10:11:57;25.53;;;18.13;;
739;SDS011;354;42.694;23.336;2023-01-15T10:14:57;26.23;;;18.37;;
739;SDS011;354;42.694;23.336;2023-01-15T10:17:31;23.67;;;16.17;;
739;SDS011;354;42.694;23.336;2023-01-15T10:20:11;24.10;;;18.30;;
739;SDS011;354;42.694;23.336;2023-01-15T10:28:58;18.93;;;16.30;;
739;SDS011;354;42.694;23.336;2023-01-15T10:31:49;14.70;;;11.27;;
739;SDS011;354;42.694;23.336;2023-01-15T10:45:46;20.73;;;16.80;;
739;SDS011;354;42.694;23.336;2023-01-15T10:51:11;18.00;;;12.43;;
739;SDS011;354;42.694;23.336;2023-01-15T10:56:11;20.63;;;15.27;;
739;SDS011;354;42.694;23.336;2023-01-15T10:58:44;20.87;;;15.67;;
739;SDS011;354;42.694;23.336;2023-01-15T11:01:15;22.37;;;16.30;;
739;SDS011;354;42.694;23.336;2023-01-15T11:03:43;22.50;;;17.57;;
739;SDS011;354;42.694;23.336;2023-01-15T11:06:16;23.07;;;17.47;;
739;SDS011;354;42.694;23.336;2023-01-15T11:08:50;24.57;;;18.47;;
739;SDS011;354;42.694;23.336;2023-01-15T11:17:21;23.97;;;18.27;;
739;SDS011;354;42.694;23.336;2023-01-15T11:20:12;19.60;;;15.17;;
739;SDS011;354;42.694;23.336;2023-01-15T11:22:42;19.77;;;15.40;;
739;SDS011;354;42.694;23.336;2023-01-15T11:25:07;18.93;;;14.40;;
739;SDS011;354;42.694;23.336;2023-01-15T11:27:34;18.93;;;15.93;;
739;SDS011;354;42.694;23.336;2023-01-15T11:30:02;18.50;;;15.53;;
739;SDS011;354;42.694;23.336;2023-01-15T11:32:33;19.03;;;14.30;;
739;SDS011;354;42.694;23.336;2023-01-15T11:35:02;18.10;;;12.77;;
739;SDS011;354;42.694;23.336;2023-01-15T11:37:38;16.37;;;14.47;;
739;SDS011;354;42.694;23.336;2023-01-15T11:40:03;16.77;;;13.63;;
739;SDS011;354;42.694;23.336;2023-01-15T11:42:32;17.83;;;13.63;;
739;SDS011;354;42.694;23.336;2023-01-15T11:45:17;15.10;;;13.40;;
739;SDS011;354;42.694;23.336;2023-01-15T11:48:12;15.17;;;13.33;;
739;SDS011;354;42.694;23.336;2023-01-15T11:51:04;16.60;;;13.80;;
739;SDS011;354;42.694;23.336;2023-01-15T11:53:33;13.87;;;12.37;;
739;SDS011;354;42.694;23.336;2023-01-15T11:56:04;17.60;;;12.33;;
739;SDS011;354;42.694;23.336;2023-01-15T11:58:37;14.87;;;12.43;;
739;SDS011;354;42.694;23.336;2023-01-15T12:01:05;13.70;;;11.73;;
739;SDS011;354;42.694;23.336;2023-01-15T12:03:32;14.00;;;12.50;;
739;SDS011;354;42.694;23.336;2023-01-15T12:06:09;12.93;;;11.50;;
739;SDS011;354;42.694;23.336;2023-01-15T12:08:51;13.87;;;11.97;;
739;SDS011;354;42.694;23.336;2023-01-15T12:20:10;12.80;;;11.40;;
739;SDS011;354;42.694;23.336;2023-01-15T12:25:39;12.40;;;11.10;;
739;SDS011;354;42.694;23.336;2023-01-15T12:28:13;11.93;;;10.50;;
739;SDS011;354;42.694;23.336;2023-01-15T12:30:44;13.60;;;11.83;;
739;SDS011;354;42.694;23.336;2023-01-15T12:44:21;13.30;;;11.90;;
739;SDS011;354;42.694;23.336;2023-01-15T12:47:16;14.30;;;11.00;;
739;SDS011;354;42.694;23.336;2023-01-15T12:49:47;13.67;;;11.23;;
739;SDS011;354;42.694;23.336;2023-01-15T12:52:20;14.03;;;11.60;;
739;SDS011;354;42.694;23.336;2023-01-15T12:54:54;12.63;;;11.33;;
739;SDS011;354;42.694;23.336;2023-01-15T12:57:32;15.03;;;12.50;;
739;SDS011;354;42.694;23.336;2023-01-15T13:00:03;12.00;;;10.80;;
739;SDS011;354;42.694;23.336;2023-01-15T13:05:15;14.60;;;11.70;;
739;SDS011;354;42.694;23.336;2023-01-15T13:07:44;13.83;;;10.70;;
739;SDS011;354;42.694;23.336;2023-01-15T13:10:30;13.23;;;11.37;;
739;SDS011;354;42.694;23.336;2023-01-15T13:15:48;12.17;;;10.83;;
739;SDS011;354;42.694;23.336;2023-01-15T13:21:03;13.57;;;11.70;;
739;SDS011;354;42.694;23.336;2023-01-15T13:24:02;12.80;;;10.47;;
739;SDS011;354;42.694;23.336;2023-01-15T13:29:48;13.63;;;12.20;;
739;SDS011;354;42.694;23.336;2023-01-15T13:32:28;13.63;;;12.27;;
739;SDS011;354;42.694;23.336;2023-01-15T13:42:38;13.23;;;11.80;;
739;SDS011;354;42.694;23.336;2023-01-15T13:48:07;12.30;;;11.00;;
739;SDS011;354;42.694;23.336;2023-01-15T13:50:41;16.43;;;13.00;;
739;SDS011;354;42.694;23.336;2023-01-15T13:55:51;13.47;;;12.07;;
739;SDS011;354;42.694;23.336;2023-01-15T13:58:20;13.20;;;11.80;;
739;SDS011;354;42.694;23.336;2023-01-15T14:00:58;14.87;;;11.87;;
739;SDS011;354;42.694;23.336;2023-01-15T14:06:44;14.13;;;12.03;;
739;SDS011;354;42.694;23.336;2023-01-15T14:09:12;14.27;;;12.60;;
739;SDS011;354;42.694;23.336;2023-01-15T14:17:54;14.37;;;12.73;;
739;SDS011;354;42.694;23.336;2023-01-15T14:20:37;14.37;;;11.63;;
739;SDS011;354;42.694;23.336;2023-01-15T14:36:45;18.33;;;13.40;;
739;SDS011;354;42.694;23.336;2023-01-15T14:39:26;16.53;;;14.40;;
739;SDS011;354;42.694;23.336;2023-01-15T14:45:03;16.33;;;13.43;;
739;SDS011;354;42.694;23.336;2023-01-15T14:47:33;20.03;;;13.30;;
739;SDS011;354;42.694;23.336;2023-01-15T14:58:47;19.73;;;14.30;;
739;SDS011;354;42.694;23.336;2023-01-15T15:01:24;20.20;;;16.40;;
739;SDS011;354;42.694;23.336;2023-01-15T15:04:03;21.63;;;16.33;;
739;SDS011;354;42.694;23.336;2023-01-15T15:06:37;22.97;;;17.00;;
739;SDS011;354;42.694;23.336;2023-01-15T15:09:11;27.07;;;18.57;;
739;SDS011;354;42.694;23.336;2023-01-15T15:11:42;20.93;;;16.67;;
739;SDS011;354;42.694;23.336;2023-01-15T15:14:30;21.83;;;15.90;;
739;SDS011;354;42.694;23.336;2023-01-15T15:17:02;23.60;;;18.47;;
739;SDS011;354;42.694;23.336;2023-01-15T15:19:42;19.87;;;15.80;;
739;SDS011;354;42.694;23.336;2023-01-15T15:22:14;21.10;;;17.33;;
739;SDS011;354;42.694;23.336;2023-01-15T15:24:44;21.90;;;18.43;;
739;SDS011;354;42.694;23.336;2023-01-15T15:29:42;20.40;;;16.60;;
739;SDS011;354;42.694;23.336;2023-01-15T15:32:10;27.70;;;20.73;;
739;SDS011;354;42.694;23.336;2023-01-15T15:34:40;21.83;;;17.40;;
739;SDS011;354;42.694;23.336;2023-01-15T15:37:21;32.57;;;22.50;;
739;SDS011;354;42.694;23.336;2023-01-15T15:39:51;23.30;;;17.17;;
739;SDS011;354;42.694;23.336;2023-01-15T15:42:25;22.10;;;17.43;;
739;SDS011;354;42.694;23.336;2023-01-15T15:45:18;26.53;;;19.87;;
739;SDS011;354;42.694;23.336;2023-01-15T15:53:49;22.60;;;17.57;;
739;SDS011;354;42.694;23.336;2023-01-15T15:56:15;28.47;;;20.33;;
739;SDS011;354;42.694;23.336;2023-01-15T15:58:41;27.87;;;20.33;;
739;SDS011;354;42.694;23.336;2023-01-15T16:01:11;29.77;;;22.13;;
739;SDS011;354;42.694;23.336;2023-01-15T16:03:43;35.93;;;26.83;;
739;SDS011;354;42.694;23.336;2023-01-15T16:06:21;33.63;;;23.60;;
739;SDS011;354;42.694;23.336;2023-01-15T16:08:56;27.53;;;22.40;;
739;SDS011;354;42.694;23.336;2023-01-15T16:11:28;32.53;;;24.73;;
739;SDS011;354;42.694;23.336;2023-01-15T16:13:55;29.00;;;22.07;;
739;SDS011;354;42.694;23.336;2023-01-15T16:16:24;28.67;;;21.93;;
739;SDS011;354;42.694;23.336;2023-01-15T16:18:53;29.20;;;23.07;;
739;SDS011;354;42.694;23.336;2023-01-15T16:21:28;35.43;;;24.13;;
739;SDS011;354;42.694;23.336;2023-01-15T16:24:00;30.60;;;22.17;;
739;SDS011;354;42.694;23.336;2023-01-15T16:26:29;36.13;;;26.67;;
739;SDS011;354;42.694;23.336;2023-01-15T16:28:57;59.97;;;39.37;;
739;SDS011;354;42.694;23.336;2023-01-15T16:31:30;31.00;;;22.53;;
739;SDS011;354;42.694;23.336;2023-01-15T16:33:57;33.67;;;25.27;;
739;SDS011;354;42.694;23.336;2023-01-15T16:36:23;32.03;;;24.77;;
739;SDS011;354;42.694;23.336;2023-01-15T16:38:51;33.53;;;25.10;;
739;SDS011;354;42.694;23.336;2023-01-15T16:41:27;35.57;;;25.63;;
739;SDS011;354;42.694;23.336;2023-01-15T16:44:00;32.73;;;24.23;;
739;SDS011;354;42.694;23.336;2023-01-15T16:46:29;34.83;;;25.57;;
739;SDS011;354;42.694;23.336;2023-01-15T16:51:47;30.00;;;21.50;;
739;SDS011;354;42.694;23.336;2023-01-15T16:57:01;37.87;;;26.70;;
739;SDS011;354;42.694;23.336;2023-01-15T17:01:55;45.20;;;30.17;;
739;SDS011;354;42.694;23.336;2023-01-15T17:06:58;47.90;;;34.13;;
739;SDS011;354;42.694;23.336;2023-01-15T17:09:24;49.10;;;34.87;;
739;SDS011;354;42.694;23.336;2023-01-15T17:11:49;44.50;;;30.73;;
739;SDS011;354;42.694;23.336;2023-01-15T17:17:13;40.30;;;29.33;;
739;SDS011;354;42.694;23.336;2023-01-15T17:19:47;40.90;;;29.07;;
739;SDS011;354;42.694;23.336;2023-01-15T17:24:53;33.57;;;25.43;;
739;SDS011;354;42.694;23.336;2023-01-15T17:27:20;37.80;;;25.73;;
739;SDS011;354;42.694;23.336;2023-01-15T17:29:46;29.33;;;23.40;;
739;SDS011;354;42.694;23.336;2023-01-15T17:32:15;35.37;;;24.77;;
739;SDS011;354;42.694;23.336;2023-01-15T17:34:44;33.10;;;24.70;;
739;SDS011;354;42.694;23.336;2023-01-15T17:37:10;32.97;;;23.57;;
739;SDS011;354;42.694;23.336;2023-01-15T17:39:35;31.73;;;22.43;;
739;SDS011;354;42.694;23.336;2023-01-15T17:42:00;29.40;;;21.73;;
739;SDS011;354;42.694;23.336;2023-01-15T17:44:26;29.13;;;22.70;;
739;SDS011;354;42.694;23.336;2023-01-15T17:46:51;26.63;;;21.63;;
739;SDS011;354;42.694;23.336;2023-01-15T17:49:16;27.83;;;22.50;;
739;SDS011;354;42.694;23.336;2023-01-15T17:51:42;31.50;;;23.93;;
739;SDS011;354;42.694;23.336;2023-01-15T17:54:07;27.57;;;22.17;;
739;SDS011;354;42.694;23.336;2023-01-15T17:56:33;25.30;;;20.00;;
739;SDS011;354;42.694;23.336;2023-01-15T17:59:17;180.37;;;83.90;;